createdAt,value
2023-09-10T00:01:38.200Z,100.00
2023-09-10T00:04:46.974Z,100.00
2023-09-10T00:07:56.911Z,100.00
2023-09-10T00:11:06.802Z,100.00
2023-09-10T00:14:15.393Z,100.00
2023-09-10T00:17:24.171Z,100.00
2023-09-10T00:20:32.762Z,100.00
2023-09-10T00:23:42.614Z,100.00
2023-09-10T00:26:51.108Z,100.00
2023-09-10T00:29:59.652Z,100.00
2023-09-10T00:33:08.175Z,100.00
2023-09-10T00:36:17.126Z,100.00
2023-09-10T00:39:26.987Z,100.00
2023-09-10T00:42:35.506Z,100.00
2023-09-10T00:45:44.269Z,100.00
2023-09-10T00:48:53.082Z,100.00
2023-09-10T00:52:02.676Z,100.00
2023-09-10T00:55:13.352Z,100.00
2023-09-10T00:58:22.055Z,100.00
2023-09-10T01:01:31.493Z,100.00
2023-09-10T01:04:40.284Z,100.00
2023-09-10T01:07:48.949Z,100.00
2023-09-10T01:11:09.896Z,100.00
2023-09-10T01:14:23.081Z,100.00
2023-09-10T01:17:38.918Z,100.00
2023-09-10T01:21:06.831Z,100.00
2023-09-10T01:24:22.867Z,100.00
2023-09-10T01:27:32.859Z,100.00
2023-09-10T01:30:41.604Z,100.00
2023-09-10T01:33:56.385Z,100.00
2023-09-10T01:37:12.579Z,100.00
2023-09-10T01:40:26.658Z,100.00
2023-09-10T01:43:37.236Z,100.00
2023-09-10T01:46:48.369Z,100.00
2023-09-10T01:49:57.853Z,100.00
2023-09-10T01:53:06.573Z,100.00
2023-09-10T01:56:15.946Z,100.00
2023-09-10T01:59:27.155Z,100.00
2023-09-10T02:02:36.347Z,100.00
2023-09-10T02:05:45.771Z,100.00
2023-09-10T02:08:54.633Z,100.00
2023-09-10T02:12:03.282Z,100.00
2023-09-10T02:15:15.352Z,100.00
2023-09-10T02:18:27.717Z,100.00
2023-09-10T02:21:36.387Z,100.00
2023-09-10T02:24:51.185Z,100.00
2023-09-10T02:27:59.757Z,100.00
2023-09-10T02:31:10.216Z,100.00
2023-09-10T02:34:19.334Z,100.00
2023-09-10T02:37:29.637Z,100.00
2023-09-10T02:40:38.454Z,100.00
2023-09-10T02:43:47.073Z,100.00
2023-09-10T02:46:57.039Z,100.00
2023-09-10T02:50:06.362Z,100.00
2023-09-10T02:53:15.122Z,100.00
2023-09-10T02:56:23.832Z,100.00
2023-09-10T02:59:32.624Z,100.00
2023-09-10T03:02:42.887Z,100.00
2023-09-10T03:05:51.643Z,100.00
2023-09-10T03:09:00.393Z,100.00
2023-09-10T03:12:29.078Z,100.00
2023-09-10T03:15:39.744Z,100.00
2023-09-10T03:18:49.802Z,100.00
2023-09-10T03:21:58.558Z,100.00
2023-09-10T03:25:08.019Z,100.00
2023-09-10T03:28:16.907Z,100.00
2023-09-10T03:31:25.694Z,100.00
2023-09-10T03:34:36.510Z,100.00
2023-09-10T03:37:45.275Z,100.00
2023-09-10T03:40:54.300Z,100.00
2023-09-10T03:44:03.851Z,100.00
2023-09-10T03:47:12.882Z,100.00
2023-09-10T03:50:23.350Z,100.00
2023-09-10T03:53:32.079Z,100.00
2023-09-10T03:56:41.142Z,100.00
2023-09-10T03:59:49.969Z,100.00
2023-09-10T04:02:59.368Z,100.00
2023-09-10T04:06:09.397Z,100.00
2023-09-10T04:09:17.961Z,100.00
2023-09-10T04:12:26.588Z,100.00
2023-09-10T04:15:35.249Z,100.00
2023-09-10T04:18:47.257Z,100.00
2023-09-10T04:21:57.780Z,100.00
2023-09-10T04:25:07.366Z,100.00
2023-09-10T04:28:16.281Z,100.00
2023-09-10T04:31:25.061Z,100.00
2023-09-10T04:34:33.936Z,100.00
2023-09-10T04:37:44.300Z,100.00
2023-09-10T04:40:53.011Z,100.00
2023-09-10T04:44:01.963Z,100.00
2023-09-10T04:47:10.728Z,100.00
2023-09-10T04:50:19.571Z,100.00
2023-09-10T04:53:29.963Z,100.00
2023-09-10T04:56:38.834Z,100.00
2023-09-10T04:59:48.234Z,100.00
2023-09-10T05:02:57.569Z,100.00
2023-09-10T05:06:08.670Z,100.00
2023-09-10T05:09:18.827Z,100.00
2023-09-10T05:12:27.451Z,100.00
2023-09-10T05:15:36.162Z,100.00
2023-09-10T05:18:44.830Z,100.00
2023-09-10T05:21:54.179Z,100.00
2023-09-10T05:25:04.406Z,100.00
2023-09-10T05:28:13.048Z,100.00
2023-09-10T05:31:21.846Z,100.00
2023-09-10T05:34:30.691Z,100.00
2023-09-10T05:37:40.080Z,99.75
2023-09-10T05:40:50.733Z,100.00
2023-09-10T05:43:59.456Z,98.59
2023-09-10T05:47:08.610Z,98.61
2023-09-10T05:50:17.418Z,99.02
2023-09-10T05:53:26.605Z,98.87
2023-09-10T05:56:37.971Z,97.05
2023-09-10T05:59:46.974Z,97.06
2023-09-10T06:02:55.921Z,95.46
2023-09-10T06:06:04.653Z,93.48
2023-09-10T06:09:13.487Z,92.58
2023-09-10T06:12:25.620Z,91.09
2023-09-10T06:15:34.647Z,90.02
2023-09-10T06:18:43.394Z,88.57
2023-09-10T06:21:52.205Z,87.18
2023-09-10T06:25:02.381Z,85.83
2023-09-10T06:28:12.728Z,85.51
2023-09-10T06:31:21.431Z,84.96
2023-09-10T06:34:30.268Z,84.61
2023-09-10T06:37:40.763Z,84.65
2023-09-10T06:40:49.803Z,84.55
2023-09-10T06:43:59.946Z,81.05
2023-09-10T06:47:11.763Z,75.19
2023-09-10T06:50:20.691Z,68.71
2023-09-10T06:53:29.313Z,62.94
2023-09-10T07:00:23.001Z,55.47
2023-09-10T07:03:33.260Z,52.34
2023-09-10T07:06:41.975Z,50.36
2023-09-10T07:09:50.551Z,50.04
2023-09-10T07:12:59.086Z,50.73
2023-09-10T07:16:09.049Z,52.44
2023-09-10T07:19:17.851Z,58.58
2023-09-10T07:22:26.927Z,63.56
2023-09-10T07:25:35.447Z,67.33
2023-09-10T07:28:44.087Z,69.32
2023-09-10T07:31:54.079Z,72.18
2023-09-10T07:35:04.041Z,72.24
2023-09-10T07:38:13.510Z,68.78
2023-09-10T07:41:22.098Z,66.39
2023-09-10T07:44:32.247Z,65.07
2023-09-10T07:47:42.726Z,66.34
2023-09-10T07:50:57.735Z,66.22
2023-09-10T07:54:06.612Z,65.27
2023-09-10T07:57:18.048Z,65.89
2023-09-10T08:00:26.869Z,65.69
2023-09-10T08:03:38.160Z,64.18
2023-09-10T08:06:47.557Z,61.91
2023-09-10T08:09:56.042Z,65.30
2023-09-10T08:13:07.558Z,66.18
2023-09-10T08:16:16.814Z,66.26
2023-09-10T08:19:26.892Z,65.01
2023-09-10T08:22:36.001Z,62.24
2023-09-10T08:25:44.770Z,62.47
2023-09-10T08:28:53.587Z,61.87
2023-09-10T08:32:02.452Z,62.34
2023-09-10T08:35:13.205Z,61.67
2023-09-10T08:38:22.036Z,60.68
2023-09-10T08:41:36.896Z,59.89
2023-09-10T08:44:48.857Z,58.38
2023-09-10T08:47:59.076Z,55.63
2023-09-10T08:51:10.055Z,54.27
2023-09-10T08:54:20.591Z,54.04
2023-09-10T08:57:30.852Z,52.38
2023-09-10T09:00:40.815Z,50.77
2023-09-10T09:03:50.028Z,51.34
2023-09-10T09:07:02.869Z,50.62
2023-09-10T09:10:15.190Z,51.96
2023-09-10T09:13:24.642Z,49.32
2023-09-10T09:16:33.825Z,47.99
2023-09-10T09:19:45.285Z,48.73
2023-09-10T09:23:04.892Z,49.19
2023-09-10T09:26:15.533Z,49.77
2023-09-10T09:29:25.157Z,48.34
2023-09-10T09:32:34.735Z,49.79
2023-09-10T09:35:43.370Z,47.41
2023-09-10T09:38:53.573Z,49.27
2023-09-10T09:42:02.059Z,47.48
2023-09-10T09:45:11.526Z,46.75
2023-09-10T09:48:20.275Z,47.15
2023-09-10T09:51:30.127Z,47.72
2023-09-10T09:54:40.547Z,47.66
2023-09-10T09:57:49.627Z,46.52
2023-09-10T10:00:58.352Z,47.37
2023-09-10T10:04:08.111Z,48.14
2023-09-10T10:07:24.522Z,46.29
2023-09-10T10:10:36.863Z,46.91
2023-09-10T10:13:45.525Z,48.62
2023-09-10T10:16:55.230Z,45.55
2023-09-10T10:20:06.100Z,47.10
2023-09-10T10:23:24.011Z,45.79
2023-09-10T10:26:37.096Z,46.06
2023-09-10T10:29:45.701Z,45.91
2023-09-10T10:32:54.928Z,45.89
2023-09-10T10:36:12.197Z,44.54
2023-09-10T10:39:25.798Z,47.54
2023-09-10T10:42:42.748Z,45.42
2023-09-10T10:45:54.597Z,46.03
2023-09-10T10:49:05.374Z,46.20
2023-09-10T10:52:16.902Z,43.60
2023-09-10T10:55:26.734Z,46.94
2023-09-10T10:58:38.737Z,45.38
2023-09-10T11:02:23.126Z,45.50
2023-09-10T11:06:07.926Z,46.81
2023-09-10T11:09:37.639Z,47.33
2023-09-10T11:13:07.313Z,47.69
2023-09-10T11:16:20.699Z,45.18
2023-09-10T11:19:48.228Z,43.57
2023-09-10T11:23:10.823Z,45.47
2023-09-10T11:26:32.607Z,45.84
2023-09-10T11:29:41.709Z,43.46
2023-09-10T11:32:53.928Z,43.31
2023-09-10T11:36:05.136Z,44.39
2023-09-10T11:39:15.483Z,43.68
2023-09-10T11:42:24.742Z,43.58
2023-09-10T11:45:34.318Z,44.27
2023-09-10T11:48:44.378Z,44.72
2023-09-10T11:51:55.702Z,44.94
2023-09-10T11:55:05.974Z,44.59
2023-09-10T11:58:14.631Z,45.66
2023-09-10T12:01:23.594Z,44.49
2023-09-10T12:04:34.591Z,43.67
2023-09-10T12:07:45.556Z,42.42
2023-09-10T12:10:56.451Z,44.35
2023-09-10T12:14:05.688Z,43.53
2023-09-10T12:17:14.402Z,42.09
2023-09-10T12:20:24.508Z,43.37
2023-09-10T12:23:33.654Z,42.85
2023-09-10T12:26:42.477Z,43.69
2023-09-10T12:29:51.353Z,44.29
2023-09-10T12:33:00.546Z,43.64
2023-09-10T12:36:10.908Z,43.25
2023-09-10T12:39:23.580Z,44.00
2023-09-10T12:42:32.325Z,44.08
2023-09-10T12:45:41.760Z,45.25
2023-09-10T12:48:50.881Z,46.37
2023-09-10T12:52:01.458Z,44.07
2023-09-10T12:55:10.691Z,45.48
2023-09-10T12:58:20.112Z,45.44
2023-09-10T13:01:28.601Z,45.62
2023-09-10T13:04:37.696Z,45.55
2023-09-10T13:07:48.032Z,45.62
2023-09-10T13:10:56.707Z,45.77
2023-09-10T13:14:05.433Z,45.55
2023-09-10T13:17:14.194Z,44.39
2023-09-10T13:20:25.095Z,46.33
2023-09-10T13:23:36.180Z,45.70
2023-09-10T13:26:44.766Z,46.44
2023-09-10T13:29:53.357Z,45.74
2023-09-10T13:33:03.238Z,45.18
2023-09-10T13:36:11.924Z,45.90
2023-09-10T13:39:22.159Z,45.11
2023-09-10T13:42:30.897Z,44.69
2023-09-10T13:45:39.503Z,44.63
2023-09-10T13:48:49.268Z,45.06
2023-09-10T13:51:57.970Z,45.40
2023-09-10T13:55:09.276Z,44.87
2023-09-10T13:58:17.945Z,44.14
2023-09-10T14:01:26.653Z,45.15
2023-09-10T14:04:35.505Z,45.20
2023-09-10T14:07:44.459Z,45.05
2023-09-10T14:10:54.328Z,45.68
2023-09-10T14:14:03.689Z,44.91
2023-09-10T14:17:12.365Z,46.37
2023-09-10T14:20:21.088Z,46.52
2023-09-10T14:23:31.800Z,45.51
2023-09-10T14:26:42.142Z,46.17
2023-09-10T14:29:50.770Z,45.65
2023-09-10T14:32:59.522Z,45.85
2023-09-10T14:36:08.539Z,47.26
2023-09-10T14:39:18.525Z,46.08
2023-09-10T14:42:28.702Z,46.28
2023-09-10T14:45:38.310Z,46.59
2023-09-10T14:48:47.926Z,45.91
2023-09-10T14:51:56.895Z,46.14
2023-09-10T14:55:08.007Z,46.98
2023-09-10T14:58:18.002Z,47.29
2023-09-10T15:01:26.795Z,47.66
2023-09-10T15:04:35.694Z,47.13
2023-09-10T15:07:44.361Z,47.88
2023-09-10T15:10:53.942Z,47.66
2023-09-10T15:14:04.219Z,46.35
2023-09-10T15:17:12.979Z,47.00
2023-09-10T15:20:21.751Z,46.77
2023-09-10T15:23:30.713Z,47.04
2023-09-10T15:26:40.267Z,47.50
2023-09-10T15:29:53.100Z,48.04
2023-09-10T15:33:02.561Z,48.07
2023-09-10T15:36:11.556Z,47.33
2023-09-10T15:39:21.319Z,48.65
2023-09-10T15:42:33.244Z,47.52
2023-09-10T15:45:43.325Z,46.84
2023-09-10T15:48:53.418Z,47.43
2023-09-10T15:52:02.272Z,48.51
2023-09-10T15:55:11.098Z,48.45
2023-09-10T15:58:23.469Z,48.99
2023-09-10T16:01:38.316Z,47.29
2023-09-10T16:04:49.013Z,48.08
2023-09-10T16:07:59.270Z,47.66
2023-09-10T16:11:10.204Z,48.60
2023-09-10T16:14:20.011Z,50.67
2023-09-10T16:17:29.994Z,48.82
2023-09-10T16:20:38.900Z,49.38
2023-09-10T16:23:47.975Z,48.92
2023-09-10T16:26:57.230Z,49.53
2023-09-10T16:30:07.367Z,49.45
2023-09-10T16:33:17.815Z,50.41
2023-09-10T16:36:29.805Z,49.07
2023-09-10T16:39:38.360Z,49.58
2023-09-10T16:42:46.884Z,50.26
2023-09-10T16:45:55.895Z,50.21
2023-09-10T16:49:06.794Z,51.84
2023-09-10T16:52:15.631Z,52.29
2023-09-10T16:55:24.344Z,52.00
2023-09-10T16:58:33.022Z,53.00
2023-09-10T17:01:41.764Z,52.43
2023-09-10T17:04:51.793Z,53.88
2023-09-10T17:08:05.693Z,53.41
2023-09-10T17:11:15.607Z,54.25
2023-09-10T17:14:24.170Z,55.02
2023-09-10T17:17:38.962Z,55.36
2023-09-10T17:20:49.187Z,56.43
2023-09-10T17:23:57.893Z,56.67
2023-09-10T17:27:07.754Z,57.20
2023-09-10T17:30:16.375Z,58.31
2023-09-10T17:33:25.471Z,58.97
2023-09-10T17:36:35.431Z,58.94
2023-09-10T17:39:44.031Z,60.05
2023-09-10T17:42:52.757Z,59.94
2023-09-10T17:46:01.292Z,60.73
2023-09-10T17:49:09.815Z,61.66
2023-09-10T17:52:19.973Z,62.92
2023-09-10T17:55:29.836Z,63.17
2023-09-10T17:58:38.905Z,64.03
2023-09-10T18:01:47.657Z,64.91
2023-09-10T18:04:56.364Z,66.56
2023-09-10T18:08:07.787Z,66.84
2023-09-10T18:11:17.241Z,67.19
2023-09-10T18:14:25.956Z,67.65
2023-09-10T18:17:36.187Z,68.10
2023-09-10T18:20:45.316Z,68.97
2023-09-10T18:23:55.343Z,69.98
2023-09-10T18:27:04.474Z,70.01
2023-09-10T18:30:14.251Z,70.51
2023-09-10T18:33:22.783Z,71.28
2023-09-10T18:36:31.437Z,71.83
2023-09-10T18:39:41.338Z,72.16
2023-09-10T18:42:50.088Z,72.37
2023-09-10T18:45:58.652Z,73.11
2023-09-10T18:49:07.316Z,72.69
2023-09-10T18:52:18.735Z,73.43
2023-09-10T18:55:28.793Z,73.40
2023-09-10T18:58:37.657Z,73.50
2023-09-10T19:01:46.609Z,74.11
2023-09-10T19:04:55.210Z,74.44
2023-09-10T19:08:07.022Z,75.20
2023-09-10T19:11:17.039Z,75.35
2023-09-10T19:14:26.557Z,76.05
2023-09-10T19:17:35.293Z,76.22
2023-09-10T19:20:46.523Z,76.81
2023-09-10T19:23:55.232Z,76.83
2023-09-10T19:27:05.400Z,77.12
2023-09-10T19:30:14.589Z,78.17
2023-09-10T19:33:23.522Z,78.10
2023-09-10T19:36:34.517Z,78.63
2023-09-10T19:39:43.190Z,78.52
2023-09-10T19:42:53.135Z,79.15
2023-09-10T19:46:04.357Z,79.38
2023-09-10T19:49:13.004Z,79.06
2023-09-10T19:52:21.619Z,79.81
2023-09-10T19:55:31.267Z,79.95
2023-09-10T19:58:41.560Z,79.79
2023-09-10T20:01:50.988Z,79.79
2023-09-10T20:04:59.716Z,79.89
2023-09-10T20:08:08.590Z,80.32
2023-09-10T20:11:18.271Z,80.19
2023-09-10T20:14:31.869Z,80.72
2023-09-10T20:17:41.436Z,80.49
2023-09-10T20:20:50.147Z,80.60
2023-09-10T20:23:58.759Z,81.08
2023-09-10T20:27:07.407Z,80.85
2023-09-10T20:30:17.294Z,81.34
2023-09-10T20:33:26.151Z,81.49
2023-09-10T20:36:34.871Z,81.87
2023-09-10T20:39:43.865Z,82.12
2023-09-10T20:42:52.913Z,82.28
2023-09-10T20:46:02.841Z,82.93
2023-09-10T20:49:13.824Z,83.06
2023-09-10T20:52:22.500Z,83.31
2023-09-10T20:55:32.542Z,83.45
2023-09-10T20:58:41.099Z,83.40
2023-09-10T21:01:51.181Z,83.61
2023-09-10T21:04:59.952Z,84.50
2023-09-10T21:08:09.243Z,84.26
2023-09-10T21:11:18.463Z,85.08
2023-09-10T21:14:40.979Z,85.05
2023-09-10T21:17:51.009Z,85.56
2023-09-10T21:20:59.700Z,85.79
2023-09-10T21:24:09.364Z,85.85
2023-09-10T21:27:18.025Z,85.73
2023-09-10T21:30:30.034Z,84.55
2023-09-10T21:33:40.908Z,84.03
2023-09-10T21:36:49.939Z,85.53
2023-09-10T21:39:58.417Z,86.05
2023-09-10T21:43:07.486Z,86.96
2023-09-10T21:46:16.092Z,87.14
2023-09-10T21:49:26.560Z,86.80
2023-09-10T21:52:35.613Z,87.71
2023-09-10T21:55:44.165Z,88.31
2023-09-10T21:58:53.482Z,88.51
2023-09-10T22:02:03.221Z,88.55
2023-09-10T22:05:13.159Z,88.58
2023-09-10T22:08:23.270Z,89.36
2023-09-10T22:11:32.010Z,89.63
2023-09-10T22:14:40.920Z,89.31
2023-09-10T22:17:50.727Z,89.33
2023-09-10T22:21:00.722Z,89.64
2023-09-10T22:24:09.554Z,89.58
2023-09-10T22:27:18.132Z,89.48
2023-09-10T22:30:26.643Z,89.54
2023-09-10T22:33:35.172Z,89.92
2023-09-10T22:36:45.041Z,89.93
2023-09-10T22:39:54.870Z,89.93
2023-09-10T22:43:03.842Z,90.03
2023-09-10T22:46:12.494Z,86.90
2023-09-10T22:49:21.078Z,87.23
2023-09-10T22:52:31.717Z,87.95
2023-09-10T22:55:40.236Z,88.80
2023-09-10T22:58:48.889Z,89.13
2023-09-10T23:01:57.742Z,90.53
2023-09-10T23:05:06.850Z,91.09
2023-09-10T23:08:16.808Z,91.58
2023-09-10T23:11:25.498Z,91.87
2023-09-10T23:14:34.178Z,92.27
2023-09-10T23:17:44.582Z,91.95
2023-09-10T23:20:54.778Z,92.36
2023-09-10T23:24:05.240Z,92.39
2023-09-10T23:27:13.915Z,92.63
2023-09-10T23:30:22.574Z,92.91
2023-09-10T23:33:31.764Z,93.18
2023-09-10T23:36:40.442Z,93.10
2023-09-10T23:39:50.325Z,93.79
2023-09-10T23:42:58.871Z,93.67
2023-09-10T23:46:07.648Z,94.10
2023-09-10T23:49:16.242Z,94.20
2023-09-10T23:52:25.646Z,93.91
2023-09-10T23:55:35.625Z,93.97
2023-09-10T23:58:45.800Z,94.06
